Aérodrome :
LOGIN :

S'inscrire | Disclaimer

   EN    FR    IT 

 










Légende :    VFR   VFR Marginal   IFR   IFR Intensif   IFR Très Intensif
Visi : 
Plafond : 
>= 8 km
>= 3000ft
5 à 8 km
1000 à 3000 ft
1500m à 5 km
500 à 1000 ft
800 à 1500m
200 à 500 ft
< 800m
< 200 ft
Symboles :   Orages  Brouillard  Fortes neiges  Fortes précipitations  Vent > 20 kt
SIGMETs :   Divers  Orages  Givrage  Turbulence  Onde Orograph.  Cendres Volcan.







- Altitude de l'aérodrome : 80 ft
- Code IATA : LPL
- Voir les cartes d'approche


EGGP - Liverpool John Lennon

DERNIER METAR :
  • 191720Z 20008KT 9999 BKN030 09/04 Q1014

METARs EXPIRÉS :
  • 191650Z 19008KT 9999 BKN033 09/04 Q1014
  • 191620Z 19008KT 9999 BKN034 09/03 Q1014
  • 191550Z 19008KT 9999 BKN035 09/04 Q1014
  • 191520Z 22009KT 9999 SCT035 BKN041 10/03 Q1015
  • 191450Z 21011KT 9999 FEW025 SCT033 BKN039 10/04 Q1015

TAF TAF EGGP
Valide du 19 à 18h jusqu'au 20 à 18h UTC


191702Z 1918/2018 17010KT 9999 SCT035
TEMPO 1918/2009 6000 RA BKN014
TEMPO 2015/2018 BKN014
ATIS : +44 151 907 2000 (option 5 or ext 5150)
Météo : +44 871 750 5150
Pas de NOTAMs connus pour ce terrain.



MET'MAP, la Météo Aéronautique d'un coup d'oeil ! - Copyright ORBIFLY Décembre 2007 - Disclaimer

ORBIFLY MET'MAP TEAM :

Programmation & Développement : Alexandra Zaïnal
Conception & Développement : Baudouin d'Aumeries
Co-Programmation & Développement : Marc-Olivier Méhu
Soutien technique & logistique : Manuel Goepfert

Contact : metmap@orbifly.com




SOURCES & CREDITS :

   NOAA